createdAt,value
2022-11-07T00:00:47.493Z,8.50
2022-11-07T00:01:42.487Z,8.50
2022-11-07T00:02:42.488Z,8.55
2022-11-07T00:03:42.408Z,8.55
2022-11-07T00:04:42.385Z,8.59
2022-11-07T00:05:42.363Z,8.60
2022-11-07T00:06:42.344Z,8.62
2022-11-07T00:07:42.452Z,8.63
2022-11-07T00:08:42.327Z,8.68
2022-11-07T00:09:42.352Z,8.67
2022-11-07T00:10:42.322Z,8.72
2022-11-07T00:11:42.318Z,8.71
2022-11-07T00:12:42.267Z,8.75
2022-11-07T00:13:42.325Z,8.75
2022-11-07T00:14:42.269Z,8.75
2022-11-07T00:15:42.261Z,8.75
2022-11-07T00:16:42.267Z,8.75
2022-11-07T00:17:42.241Z,8.75
2022-11-07T00:18:42.264Z,8.78
2022-11-07T00:19:42.196Z,8.74
2022-11-07T00:20:42.167Z,8.75
2022-11-07T00:21:42.159Z,8.72
2022-11-07T00:22:42.149Z,8.74
2022-11-07T00:23:42.160Z,8.74
2022-11-07T00:24:42.170Z,8.74
2022-11-07T00:25:42.124Z,8.72
2022-11-07T00:26:42.106Z,8.72
2022-11-07T00:27:42.167Z,8.71
2022-11-07T00:28:42.062Z,8.72
2022-11-07T00:29:42.128Z,8.71
2022-11-07T00:30:42.072Z,8.71
2022-11-07T00:31:42.275Z,8.70
2022-11-07T00:32:42.030Z,8.70
2022-11-07T00:33:42.013Z,8.71
2022-11-07T00:34:42.011Z,8.72
2022-11-07T00:35:42.038Z,8.71
2022-11-07T00:36:41.968Z,8.81
2022-11-07T00:37:42.005Z,8.86
2022-11-07T00:38:41.975Z,8.90
2022-11-07T00:41:09.294Z,8.92
2022-11-07T00:41:14.364Z,8.93
2022-11-07T00:42:14.376Z,8.95
2022-11-07T00:43:14.636Z,8.96
2022-11-07T00:44:14.362Z,8.98
2022-11-07T00:45:14.320Z,8.98
2022-11-07T00:46:14.386Z,8.95
2022-11-07T00:47:14.281Z,8.95
2022-11-07T00:48:14.326Z,8.96
2022-11-07T00:49:14.272Z,8.92
2022-11-07T00:50:14.265Z,8.90
2022-11-07T00:51:14.233Z,8.89
2022-11-07T00:52:14.271Z,8.89
2022-11-07T00:53:14.542Z,8.90
2022-11-07T00:54:14.236Z,8.92
2022-11-07T00:55:14.200Z,8.92
2022-11-07T00:56:14.192Z,8.92
2022-11-07T00:57:14.201Z,8.90
2022-11-07T00:58:14.672Z,8.89
2022-11-07T00:59:14.143Z,8.90
2022-11-07T01:00:14.148Z,8.98
2022-11-07T01:01:14.163Z,8.96
2022-11-07T01:02:14.178Z,8.96
2022-11-07T01:03:14.459Z,8.99
2022-11-07T01:04:14.109Z,8.96
2022-11-07T01:05:14.076Z,8.98
2022-11-07T01:06:14.063Z,8.99
2022-11-07T01:07:14.063Z,9.04
2022-11-07T01:08:14.083Z,9.04
2022-11-07T01:09:14.073Z,9.01
2022-11-07T01:10:14.013Z,8.99
2022-11-07T01:11:13.977Z,8.99
2022-11-07T01:12:13.983Z,9.01
2022-11-07T01:13:14.260Z,8.99
2022-11-07T01:14:13.994Z,8.99
2022-11-07T01:15:13.975Z,8.99
2022-11-07T01:16:13.934Z,8.98
2022-11-07T01:17:13.917Z,9.01
2022-11-07T01:18:13.898Z,8.99
2022-11-07T01:19:13.929Z,8.99
2022-11-07T01:20:13.886Z,8.99
2022-11-07T01:21:16.592Z,9.01
2022-11-07T01:22:13.868Z,8.99
2022-11-07T01:23:14.326Z,8.98
2022-11-07T01:24:13.847Z,8.99
2022-11-07T01:25:13.882Z,8.98
2022-11-07T01:26:13.824Z,9.01
2022-11-07T01:27:13.787Z,9.01
2022-11-07T01:28:13.791Z,9.01
2022-11-07T01:29:13.778Z,9.01
2022-11-07T01:30:13.907Z,9.01
2022-11-07T01:31:13.727Z,9.03
2022-11-07T01:32:13.742Z,9.04
2022-11-07T01:33:13.949Z,9.04
2022-11-07T01:34:13.712Z,9.06
2022-11-07T01:35:13.712Z,9.06
2022-11-07T01:36:13.748Z,9.04
2022-11-07T01:37:13.678Z,9.08
2022-11-07T01:38:13.643Z,9.09
2022-11-07T01:39:13.633Z,9.09
2022-11-07T01:40:13.618Z,9.06
2022-11-07T01:41:13.637Z,9.09
2022-11-07T01:42:13.618Z,9.09
2022-11-07T01:43:13.774Z,9.09
2022-11-07T01:44:13.578Z,9.09
2022-11-07T01:45:13.573Z,9.09
2022-11-07T01:46:13.619Z,9.12
2022-11-07T01:47:13.564Z,9.09
2022-11-07T01:48:13.523Z,9.08
2022-11-07T01:49:13.482Z,9.06
2022-11-07T01:50:13.501Z,9.09
2022-11-07T01:51:13.523Z,9.09
2022-11-07T01:52:13.522Z,9.09
2022-11-07T01:53:13.867Z,9.09
2022-11-07T01:54:13.442Z,9.08
2022-11-07T01:55:13.460Z,9.08
2022-11-07T01:56:13.437Z,9.04
2022-11-07T01:57:13.392Z,9.04
2022-11-07T01:58:13.437Z,9.06
2022-11-07T01:59:13.383Z,9.01
2022-11-07T02:00:13.378Z,9.04
2022-11-07T02:01:13.378Z,9.01
2022-11-07T02:02:13.494Z,9.01
2022-11-07T02:03:13.727Z,8.99
2022-11-07T02:04:13.309Z,9.04
2022-11-07T02:05:13.282Z,9.06
2022-11-07T02:06:13.284Z,9.06
2022-11-07T02:07:13.240Z,9.06
2022-11-07T02:08:13.271Z,9.06
2022-11-07T02:09:13.264Z,9.03
2022-11-07T02:10:13.232Z,9.04
2022-11-07T02:11:13.212Z,9.06
2022-11-07T02:12:13.210Z,9.03
2022-11-07T02:13:13.548Z,8.99
2022-11-07T02:14:13.217Z,9.06
2022-11-07T02:15:13.152Z,9.06
2022-11-07T02:16:13.176Z,9.06
2022-11-07T02:17:13.180Z,9.06
2022-11-07T02:18:13.122Z,9.08
2022-11-07T02:19:13.119Z,9.06
2022-11-07T02:20:13.146Z,9.06
2022-11-07T02:21:13.095Z,9.04
2022-11-07T02:22:13.098Z,9.01
2022-11-07T02:23:13.502Z,9.01
2022-11-07T02:24:13.068Z,9.01
2022-11-07T02:25:13.078Z,8.98
2022-11-07T02:26:13.039Z,8.96
2022-11-07T02:27:12.999Z,8.93
2022-11-07T02:28:13.004Z,8.95
2022-11-07T02:29:12.982Z,8.92
2022-11-07T02:30:12.993Z,8.90
2022-11-07T02:31:12.995Z,8.89
2022-11-07T02:32:12.936Z,8.89
2022-11-07T02:33:13.253Z,8.88
2022-11-07T02:34:12.926Z,8.88
2022-11-07T02:35:12.920Z,8.89
2022-11-07T02:36:12.954Z,8.88
2022-11-07T02:37:12.877Z,8.88
2022-11-07T02:38:12.892Z,8.86
2022-11-07T02:39:12.849Z,8.86
2022-11-07T02:40:12.839Z,8.85
2022-11-07T02:41:12.841Z,8.81
2022-11-07T02:42:12.850Z,8.83
2022-11-07T02:43:13.044Z,8.81
2022-11-07T02:44:12.813Z,8.80
2022-11-07T02:45:12.759Z,8.81
2022-11-07T02:46:12.759Z,8.81
2022-11-07T02:47:12.826Z,8.81
2022-11-07T02:48:12.769Z,8.81
2022-11-07T02:49:12.718Z,8.81
2022-11-07T02:50:12.723Z,8.81
2022-11-07T02:51:12.706Z,8.80
2022-11-07T02:52:12.707Z,8.78
2022-11-07T02:53:13.152Z,8.81
2022-11-07T02:54:12.652Z,8.78
2022-11-07T02:55:13.386Z,8.80
2022-11-07T02:56:12.656Z,8.80
2022-11-07T02:57:12.601Z,8.78
2022-11-07T02:58:12.683Z,8.78
2022-11-07T02:59:12.587Z,8.77
2022-11-07T03:00:12.576Z,8.78
2022-11-07T03:01:12.647Z,8.78
2022-11-07T03:02:12.713Z,8.77
2022-11-07T03:03:12.803Z,8.77
2022-11-07T03:04:12.573Z,8.75
2022-11-07T03:05:12.531Z,8.78
2022-11-07T03:06:12.507Z,8.78
2022-11-07T03:07:12.474Z,8.80
2022-11-07T03:08:12.504Z,8.80
2022-11-07T03:09:12.513Z,8.77
2022-11-07T03:10:12.473Z,8.75
2022-11-07T03:11:12.451Z,8.78
2022-11-07T03:12:12.468Z,8.75
2022-11-07T03:13:12.716Z,8.74
2022-11-07T03:14:12.425Z,8.74
2022-11-07T03:15:12.413Z,8.75
2022-11-07T03:16:12.431Z,8.74
2022-11-07T03:17:12.373Z,8.74
2022-11-07T03:18:12.353Z,8.72
2022-11-07T03:19:12.318Z,8.72
2022-11-07T03:20:12.439Z,8.72
2022-11-07T03:21:12.326Z,8.71
2022-11-07T03:22:12.292Z,8.70
2022-11-07T03:23:12.697Z,8.70
2022-11-07T03:24:12.275Z,8.70
2022-11-07T03:25:12.271Z,8.70
2022-11-07T03:26:12.302Z,8.67
2022-11-07T03:27:12.235Z,8.68
2022-11-07T03:28:12.219Z,8.70
2022-11-07T03:29:12.230Z,8.72
2022-11-07T03:30:12.193Z,8.70
2022-11-07T03:31:12.241Z,8.71
2022-11-07T03:32:12.183Z,8.72
2022-11-07T03:33:12.597Z,8.74
2022-11-07T03:34:12.134Z,8.75
2022-11-07T03:35:12.162Z,8.75
2022-11-07T03:36:12.153Z,8.75
2022-11-07T03:37:12.133Z,8.75
2022-11-07T03:38:12.095Z,8.72
2022-11-07T03:39:12.079Z,8.74
2022-11-07T03:40:12.064Z,8.75
2022-11-07T03:41:12.051Z,8.77
2022-11-07T03:42:12.082Z,8.75
2022-11-07T03:43:12.319Z,8.74
2022-11-07T03:44:12.003Z,8.75
2022-11-07T03:45:12.036Z,8.75
2022-11-07T03:46:11.971Z,8.77
2022-11-07T03:47:11.973Z,8.75
2022-11-07T03:48:12.012Z,8.74
2022-11-07T03:49:11.944Z,8.72
2022-11-07T03:50:11.920Z,8.74
2022-11-07T03:51:11.933Z,8.71
2022-11-07T03:52:11.894Z,8.68
2022-11-07T03:53:12.174Z,8.71
2022-11-07T03:54:11.910Z,8.68
2022-11-07T03:55:11.890Z,8.68
2022-11-07T03:56:11.848Z,8.68
2022-11-07T03:57:11.849Z,8.68
2022-11-07T03:58:11.810Z,8.67
2022-11-07T03:59:11.874Z,8.65
2022-11-07T04:00:11.809Z,8.65
2022-11-07T04:01:11.789Z,8.65
2022-11-07T04:02:12.021Z,8.65
2022-11-07T04:03:11.868Z,8.68
2022-11-07T04:04:11.808Z,8.65
2022-11-07T04:05:11.747Z,8.62
2022-11-07T04:06:11.790Z,8.60
2022-11-07T04:07:11.741Z,8.60
2022-11-07T04:08:11.706Z,8.59
2022-11-07T04:09:11.724Z,8.59
2022-11-07T04:10:11.755Z,8.59
2022-11-07T04:11:11.695Z,8.60
2022-11-07T04:12:11.650Z,8.60
2022-11-07T04:13:11.745Z,8.60
2022-11-07T04:14:11.605Z,8.60
2022-11-07T04:15:11.656Z,8.59
2022-11-07T04:16:17.286Z,8.62
2022-11-07T04:17:11.612Z,8.65
2022-11-07T04:18:11.617Z,8.63
2022-11-07T04:19:11.550Z,8.63
2022-11-07T04:20:11.522Z,8.65
2022-11-07T04:21:11.550Z,8.65
2022-11-07T04:22:11.573Z,8.65
2022-11-07T04:23:11.704Z,8.65
2022-11-07T04:24:11.582Z,8.67
2022-11-07T04:25:11.494Z,8.70
2022-11-07T04:26:11.465Z,8.70
2022-11-07T04:27:11.537Z,8.70
2022-11-07T04:28:11.419Z,8.67
2022-11-07T04:29:11.443Z,8.67
2022-11-07T04:30:11.428Z,8.67
2022-11-07T04:31:11.415Z,8.65
2022-11-07T04:32:11.383Z,8.63
2022-11-07T04:33:11.518Z,8.60
2022-11-07T04:34:11.349Z,8.60
2022-11-07T04:35:11.356Z,8.62
2022-11-07T04:36:11.351Z,8.60
2022-11-07T04:37:11.336Z,8.60
2022-11-07T04:38:11.334Z,8.59
2022-11-07T04:39:11.320Z,8.59
2022-11-07T04:40:11.278Z,8.60
2022-11-07T04:41:11.267Z,8.67
2022-11-07T04:42:11.262Z,8.65
2022-11-07T04:43:11.266Z,8.63
2022-11-07T04:44:11.245Z,8.65
2022-11-07T04:45:11.265Z,8.65
2022-11-07T04:46:11.204Z,8.65
2022-11-07T04:47:11.201Z,8.67
2022-11-07T04:48:11.178Z,8.67
2022-11-07T04:49:11.207Z,8.70
2022-11-07T04:50:11.147Z,8.67
2022-11-07T04:51:11.182Z,8.68
2022-11-07T04:52:11.120Z,8.70
2022-11-07T04:53:11.189Z,8.70
2022-11-07T04:54:11.161Z,8.71
2022-11-07T04:55:11.108Z,8.71
2022-11-07T04:56:11.064Z,8.74
2022-11-07T04:57:11.085Z,8.74
2022-11-07T04:58:11.052Z,8.72
2022-11-07T04:59:11.046Z,8.71
2022-11-07T05:00:11.086Z,8.71
2022-11-07T05:01:11.022Z,8.71
2022-11-07T05:02:11.062Z,8.70
2022-11-07T05:03:11.088Z,8.71
2022-11-07T05:04:11.001Z,8.71
2022-11-07T05:05:11.013Z,8.71
2022-11-07T05:06:10.965Z,8.71
2022-11-07T05:07:10.968Z,8.71
2022-11-07T05:08:10.903Z,8.70
2022-11-07T05:09:10.925Z,8.71
2022-11-07T05:10:12.317Z,8.71
2022-11-07T05:11:10.913Z,8.68
2022-11-07T05:12:10.877Z,8.72
2022-11-07T05:13:10.854Z,8.72
2022-11-07T05:14:10.848Z,8.71
2022-11-07T05:15:10.831Z,8.70
2022-11-07T05:16:10.852Z,8.67
2022-11-07T05:17:10.826Z,8.67
2022-11-07T05:18:10.805Z,8.67
2022-11-07T05:19:10.777Z,8.67
2022-11-07T05:20:10.767Z,8.68
2022-11-07T05:21:10.755Z,8.68
2022-11-07T05:22:10.755Z,8.70
2022-11-07T05:23:10.775Z,8.70
2022-11-07T05:24:10.694Z,8.68
2022-11-07T05:25:10.712Z,8.68
2022-11-07T05:26:10.734Z,8.70
2022-11-07T05:27:10.709Z,8.71
2022-11-07T05:28:10.654Z,8.68
2022-11-07T05:29:10.649Z,8.68
2022-11-07T05:30:10.617Z,8.67
2022-11-07T05:31:10.615Z,8.70
2022-11-07T05:32:10.642Z,8.70
2022-11-07T05:33:10.638Z,8.68
2022-11-07T05:34:14.496Z,8.71
2022-11-07T05:35:10.584Z,8.71
2022-11-07T05:36:10.536Z,8.70
2022-11-07T05:37:10.538Z,8.70
2022-11-07T05:38:10.558Z,8.68
2022-11-07T05:39:10.516Z,8.71
2022-11-07T05:40:10.511Z,8.72
2022-11-07T05:41:10.498Z,8.72
2022-11-07T05:42:10.479Z,8.74
2022-11-07T05:43:10.480Z,8.75
2022-11-07T05:44:10.478Z,8.78
2022-11-07T05:45:10.506Z,8.77
2022-11-07T05:46:10.443Z,8.77
2022-11-07T05:47:10.406Z,8.77
2022-11-07T05:48:10.397Z,8.75
2022-11-07T05:49:10.451Z,8.74
2022-11-07T05:50:10.357Z,8.74
2022-11-07T05:51:10.422Z,8.71
2022-11-07T05:52:10.364Z,8.71
2022-11-07T05:53:10.401Z,8.70
2022-11-07T05:54:10.335Z,8.70
2022-11-07T05:55:10.333Z,8.71
2022-11-07T05:56:10.296Z,8.68
2022-11-07T05:57:10.296Z,8.67
2022-11-07T05:58:10.259Z,8.67
2022-11-07T05:59:10.380Z,8.65
2022-11-07T06:00:10.288Z,8.63
2022-11-07T06:01:10.242Z,8.63
2022-11-07T06:02:10.316Z,8.63
2022-11-07T06:03:10.282Z,8.62
2022-11-07T06:04:10.161Z,8.60
2022-11-07T06:05:10.136Z,8.63
2022-11-07T06:06:10.271Z,8.60
2022-11-07T06:07:10.098Z,8.60
2022-11-07T06:08:10.159Z,8.57
2022-11-07T06:09:10.075Z,8.62
2022-11-07T06:10:10.147Z,8.59
2022-11-07T06:11:10.083Z,8.59
2022-11-07T06:12:10.044Z,8.56
2022-11-07T06:13:10.035Z,8.59
2022-11-07T06:14:10.004Z,8.56
2022-11-07T06:15:10.023Z,8.56
2022-11-07T06:16:09.976Z,8.55
2022-11-07T06:17:10.168Z,8.59
2022-11-07T06:18:09.960Z,8.56
2022-11-07T06:19:09.945Z,8.56
2022-11-07T06:20:09.917Z,8.53
2022-11-07T06:21:09.922Z,8.52
2022-11-07T06:22:09.932Z,8.53
2022-11-07T06:23:09.892Z,8.50
2022-11-07T06:24:14.883Z,8.50
2022-11-07T06:25:09.868Z,8.47
2022-11-07T06:26:09.835Z,8.46
2022-11-07T06:27:09.849Z,8.42
2022-11-07T06:28:09.834Z,8.41
2022-11-07T06:29:09.815Z,8.41
2022-11-07T06:30:09.802Z,8.39
2022-11-07T06:31:09.788Z,8.41
2022-11-07T06:32:09.759Z,8.39
2022-11-07T06:33:09.833Z,8.41
2022-11-07T06:34:09.738Z,8.42
2022-11-07T06:35:09.742Z,8.42
2022-11-07T06:36:09.716Z,8.44
2022-11-07T06:37:09.706Z,8.44
2022-11-07T06:38:09.678Z,8.46
2022-11-07T06:39:09.754Z,8.47
2022-11-07T06:40:09.660Z,8.49
2022-11-07T06:41:09.661Z,8.49
2022-11-07T06:42:09.649Z,8.52
2022-11-07T06:43:09.644Z,8.52
2022-11-07T06:44:09.643Z,8.52
2022-11-07T06:45:09.640Z,8.55
2022-11-07T06:46:09.580Z,8.56
2022-11-07T06:47:09.591Z,8.57
2022-11-07T06:48:09.573Z,8.59
2022-11-07T06:49:09.553Z,8.57
2022-11-07T06:50:09.551Z,8.57
2022-11-07T06:51:09.547Z,8.59
2022-11-07T06:52:09.499Z,8.60
2022-11-07T06:53:09.503Z,8.59
2022-11-07T06:54:09.507Z,8.60
2022-11-07T06:55:09.510Z,8.59
2022-11-07T06:56:09.450Z,8.62
2022-11-07T06:57:09.473Z,8.62
2022-11-07T06:58:15.949Z,8.62
2022-11-07T06:59:09.421Z,8.63
2022-11-07T07:00:09.401Z,8.63
2022-11-07T07:01:09.460Z,8.63
2022-11-07T07:02:09.411Z,8.67
2022-11-07T07:03:09.404Z,8.67
2022-11-07T07:04:09.382Z,8.67
2022-11-07T07:05:09.345Z,8.67
2022-11-07T07:06:09.351Z,8.65
2022-11-07T07:07:09.340Z,8.67
2022-11-07T07:08:09.301Z,8.70
2022-11-07T07:09:09.295Z,8.71
2022-11-07T07:10:09.270Z,8.71
2022-11-07T07:11:09.269Z,8.71
2022-11-07T07:12:09.274Z,8.70
2022-11-07T07:13:09.285Z,8.71
2022-11-07T07:14:11.782Z,8.72
2022-11-07T07:15:09.221Z,8.72
2022-11-07T07:16:09.207Z,8.74
2022-11-07T07:17:09.237Z,8.72
2022-11-07T07:18:09.163Z,8.72
2022-11-07T07:19:09.184Z,8.71
2022-11-07T07:20:09.142Z,8.72
2022-11-07T07:21:09.151Z,8.74
2022-11-07T07:22:09.157Z,8.74
2022-11-07T07:23:09.142Z,8.74
2022-11-07T07:24:09.089Z,8.74
2022-11-07T07:25:09.095Z,8.77
2022-11-07T07:26:09.072Z,8.75
2022-11-07T07:27:09.064Z,8.75
2022-11-07T07:28:09.139Z,8.77
2022-11-07T07:29:09.069Z,8.77
2022-11-07T07:30:09.029Z,8.77
2022-11-07T07:31:09.058Z,8.78
2022-11-07T07:32:08.996Z,8.77
2022-11-07T07:33:09.016Z,8.78
2022-11-07T07:34:08.988Z,8.77
2022-11-07T07:35:08.989Z,8.78
2022-11-07T07:36:09.009Z,8.80
2022-11-07T07:37:08.947Z,8.81
2022-11-07T07:38:08.950Z,8.78
2022-11-07T07:39:08.952Z,8.83
2022-11-07T07:40:08.920Z,8.81
2022-11-07T07:41:08.896Z,8.81
2022-11-07T07:42:08.898Z,8.81
2022-11-07T07:43:08.855Z,8.85
2022-11-07T07:44:08.827Z,8.86
2022-11-07T07:45:08.849Z,8.88
2022-11-07T07:46:08.815Z,8.92
2022-11-07T07:47:11.405Z,8.95
2022-11-07T07:48:08.787Z,8.96
2022-11-07T07:49:08.794Z,9.01
2022-11-07T07:50:08.793Z,9.04
2022-11-07T07:51:08.759Z,9.08
2022-11-07T07:52:08.731Z,9.12
2022-11-07T07:53:09.375Z,9.18
2022-11-07T07:54:08.714Z,9.22
2022-11-07T07:55:08.692Z,9.23
2022-11-07T07:56:08.735Z,9.26
2022-11-07T07:57:08.693Z,9.26
2022-11-07T07:58:08.717Z,9.26
2022-11-07T07:59:08.651Z,9.24
2022-11-07T08:00:08.686Z,9.26
2022-11-07T08:01:08.678Z,9.22
2022-11-07T08:02:08.653Z,9.18
2022-11-07T08:03:08.622Z,9.16
2022-11-07T08:04:08.612Z,9.19
2022-11-07T08:05:08.555Z,9.18
2022-11-07T08:06:08.606Z,9.19
2022-11-07T08:07:08.528Z,9.24
2022-11-07T08:08:08.561Z,9.27
2022-11-07T08:09:08.580Z,9.32
2022-11-07T08:10:35.203Z,9.36
2022-11-07T08:11:08.494Z,9.44
2022-11-07T08:12:08.531Z,9.48
2022-11-07T08:13:08.456Z,9.51
2022-11-07T08:14:08.449Z,9.55
2022-11-07T08:15:08.494Z,9.55
2022-11-07T08:16:08.443Z,9.59
2022-11-07T08:17:08.423Z,9.57
2022-11-07T08:18:08.459Z,9.57
2022-11-07T08:19:08.397Z,9.52
2022-11-07T08:20:08.439Z,9.52
2022-11-07T08:21:08.352Z,9.51
2022-11-07T08:22:08.354Z,9.51
2022-11-07T08:23:14.597Z,9.54
2022-11-07T08:24:08.326Z,9.55
2022-11-07T08:25:08.339Z,9.59
2022-11-07T08:26:08.355Z,9.60
2022-11-07T08:27:08.294Z,9.59
2022-11-07T08:28:08.346Z,9.59
2022-11-07T08:29:08.291Z,9.54
2022-11-07T08:30:08.251Z,9.54
2022-11-07T08:31:08.243Z,9.60
2022-11-07T08:32:08.307Z,9.66
2022-11-07T08:33:08.225Z,9.69
2022-11-07T08:34:08.259Z,9.70
2022-11-07T08:35:08.197Z,9.73
2022-11-07T08:36:08.166Z,9.75
2022-11-07T08:37:08.169Z,9.78
2022-11-07T08:38:08.180Z,9.84
2022-11-07T08:39:08.113Z,9.84
2022-11-07T08:40:08.119Z,9.88
2022-11-07T08:41:08.109Z,9.88
2022-11-07T08:42:08.131Z,9.91
2022-11-07T08:43:08.077Z,9.88
2022-11-07T08:44:08.061Z,9.87
2022-11-07T08:45:08.058Z,9.80
2022-11-07T08:46:08.087Z,9.80
2022-11-07T08:47:08.683Z,9.77
2022-11-07T08:48:08.161Z,9.75
2022-11-07T08:49:07.983Z,9.77
2022-11-07T08:50:08.026Z,9.72
2022-11-07T08:51:07.966Z,9.70
2022-11-07T08:52:08.025Z,9.67
2022-11-07T08:53:08.082Z,9.67
2022-11-07T08:54:07.964Z,9.66
2022-11-07T08:55:07.907Z,9.69
2022-11-07T08:56:07.948Z,9.72
2022-11-07T08:57:07.903Z,9.73
2022-11-07T08:58:07.887Z,9.77
2022-11-07T08:59:07.906Z,9.80
2022-11-07T09:00:07.861Z,9.81
2022-11-07T09:01:07.844Z,9.87
2022-11-07T09:03:31.223Z,9.96
2022-11-07T09:04:07.963Z,10.02
2022-11-07T09:05:07.814Z,10.10
2022-11-07T09:06:07.777Z,10.12
2022-11-07T09:07:07.749Z,10.10
2022-11-07T09:08:07.795Z,10.16
2022-11-07T09:09:10.499Z,10.20
2022-11-07T09:10:07.760Z,10.20
2022-11-07T09:11:07.711Z,10.16
2022-11-07T09:12:07.715Z,10.21
2022-11-07T09:13:07.677Z,10.21
2022-11-07T09:14:07.693Z,10.20
2022-11-07T09:15:07.675Z,10.24
2022-11-07T09:16:07.649Z,10.28
2022-11-07T09:17:07.637Z,10.31
2022-11-07T09:18:07.626Z,10.38
2022-11-07T09:19:07.595Z,10.36
2022-11-07T09:20:07.617Z,10.46
2022-11-07T09:21:07.592Z,10.45
2022-11-07T09:22:07.575Z,10.46
2022-11-07T09:23:07.541Z,10.58
2022-11-07T09:24:07.550Z,10.60
2022-11-07T09:25:07.521Z,10.60
2022-11-07T09:26:07.558Z,10.62
2022-11-07T09:27:07.483Z,10.75
2022-11-07T09:28:07.643Z,10.79
2022-11-07T09:29:07.479Z,10.91
2022-11-07T09:30:07.461Z,10.98
2022-11-07T09:31:07.479Z,11.05
2022-11-07T09:32:30.417Z,11.11
2022-11-07T09:33:07.409Z,11.09
2022-11-07T09:34:07.437Z,11.13
2022-11-07T09:35:07.384Z,11.15
2022-11-07T09:36:07.391Z,11.11
2022-11-07T09:37:07.426Z,11.11
2022-11-07T09:38:07.383Z,11.08
2022-11-07T09:39:07.337Z,11.01
2022-11-07T09:40:07.346Z,10.93
2022-11-07T09:41:07.328Z,10.90
2022-11-07T09:42:07.304Z,10.91
2022-11-07T09:43:07.309Z,10.94
2022-11-07T09:44:07.321Z,10.95
2022-11-07T09:45:07.269Z,10.95
2022-11-07T09:46:07.248Z,10.93
2022-11-07T09:47:07.227Z,10.93
2022-11-07T09:48:07.290Z,10.86
2022-11-07T09:49:07.202Z,10.90
2022-11-07T09:50:07.200Z,10.90
2022-11-07T09:51:07.194Z,10.87
2022-11-07T09:52:07.166Z,10.86
2022-11-07T09:53:07.136Z,10.86
2022-11-07T09:54:07.236Z,10.90
2022-11-07T09:55:07.122Z,10.94
2022-11-07T09:56:07.122Z,10.95
2022-11-07T09:57:09.954Z,10.94
2022-11-07T09:58:07.100Z,10.93
2022-11-07T09:59:11.281Z,10.98
2022-11-07T10:00:07.075Z,11.05
2022-11-07T10:01:07.141Z,11.04
2022-11-07T10:02:07.090Z,11.03
2022-11-07T10:03:07.018Z,11.03
2022-11-07T10:05:07.028Z,11.13
2022-11-07T10:06:06.998Z,11.16
2022-11-07T10:07:06.961Z,11.22
2022-11-07T10:08:06.967Z,11.25
2022-11-07T10:09:06.953Z,11.31
2022-11-07T10:10:06.979Z,11.19
2022-11-07T10:11:06.906Z,11.22
2022-11-07T10:12:06.915Z,11.25
2022-11-07T10:13:06.912Z,11.27
2022-11-07T10:14:06.890Z,11.27
2022-11-07T10:15:06.863Z,11.36
2022-11-07T10:16:06.885Z,11.38
2022-11-07T10:17:06.843Z,11.30
2022-11-07T10:18:06.829Z,11.41
2022-11-07T10:19:06.819Z,11.54
2022-11-07T10:20:06.811Z,11.55
2022-11-07T10:21:35.863Z,11.61
2022-11-07T10:22:06.781Z,11.62
2022-11-07T10:23:06.819Z,11.54
2022-11-07T10:24:06.748Z,11.48
2022-11-07T10:25:06.727Z,11.37
2022-11-07T10:26:06.750Z,11.36
2022-11-07T10:27:06.725Z,11.45
2022-11-07T10:28:06.715Z,11.48
2022-11-07T10:29:06.682Z,11.49
2022-11-07T10:30:06.676Z,11.56
2022-11-07T10:31:06.651Z,11.66
2022-11-07T10:32:06.695Z,11.67
2022-11-07T10:33:06.621Z,11.69
2022-11-07T10:34:06.678Z,11.64
2022-11-07T10:35:06.624Z,11.69
2022-11-07T10:36:06.593Z,11.79
2022-11-07T10:37:06.584Z,11.84
2022-11-07T10:38:06.597Z,11.80
2022-11-07T10:39:06.593Z,11.89
2022-11-07T10:40:11.715Z,11.99
2022-11-07T10:41:06.523Z,12.04
2022-11-07T10:42:06.588Z,12.05
2022-11-07T10:43:06.519Z,12.21
2022-11-07T10:44:06.522Z,12.33
2022-11-07T10:45:06.463Z,12.59
2022-11-07T10:46:06.460Z,12.66
2022-11-07T10:47:06.440Z,12.77
2022-11-07T10:48:06.437Z,12.90
2022-11-07T10:49:06.490Z,13.04
2022-11-07T10:50:06.404Z,13.04
2022-11-07T10:51:06.395Z,12.68
2022-11-07T10:52:06.397Z,12.62
2022-11-07T10:53:06.419Z,12.69
2022-11-07T10:54:06.408Z,12.73
2022-11-07T10:55:06.331Z,12.77
2022-11-07T10:56:06.335Z,12.81
2022-11-07T10:57:06.310Z,12.83
2022-11-07T10:58:06.305Z,12.77
2022-11-07T10:59:06.281Z,12.68
2022-11-07T11:00:06.317Z,12.66
2022-11-07T11:01:06.356Z,12.62
2022-11-07T11:02:06.273Z,12.50
2022-11-07T11:03:06.340Z,12.35
2022-11-07T11:04:06.227Z,12.26
2022-11-07T11:05:06.236Z,12.23
2022-11-07T11:06:06.212Z,12.08
2022-11-07T11:07:06.222Z,12.07
2022-11-07T11:08:06.198Z,12.10
2022-11-07T11:09:06.151Z,11.97
2022-11-07T11:10:06.191Z,12.00
2022-11-07T11:11:06.116Z,11.99
2022-11-07T11:12:06.125Z,11.96
2022-11-07T11:13:06.141Z,11.99
2022-11-07T11:14:06.128Z,12.00
2022-11-07T11:15:06.077Z,11.97
2022-11-07T11:16:06.080Z,11.95
2022-11-07T11:17:06.106Z,11.91
2022-11-07T11:18:06.046Z,11.89
2022-11-07T11:19:06.055Z,11.96
2022-11-07T11:20:06.053Z,11.99
2022-11-07T11:21:06.013Z,12.04
2022-11-07T11:22:09.559Z,12.00
2022-11-07T11:23:05.986Z,11.89
2022-11-07T11:24:05.983Z,11.89
2022-11-07T11:25:06.070Z,11.89
2022-11-07T11:26:05.953Z,11.93
2022-11-07T11:27:05.928Z,11.89
2022-11-07T11:28:05.913Z,11.88
2022-11-07T11:29:05.896Z,11.85
2022-11-07T11:30:05.967Z,11.85
2022-11-07T11:31:05.869Z,11.87
2022-11-07T11:32:05.860Z,11.85
2022-11-07T11:33:05.832Z,11.82
2022-11-07T11:34:05.844Z,11.79
2022-11-07T11:35:05.816Z,11.74
2022-11-07T11:36:05.836Z,11.73
2022-11-07T11:37:05.835Z,11.73
2022-11-07T11:38:05.785Z,11.70
2022-11-07T11:39:05.763Z,11.70
2022-11-07T11:40:05.770Z,11.71
2022-11-07T11:41:10.569Z,11.73
2022-11-07T11:42:05.763Z,11.73
2022-11-07T11:43:05.699Z,11.70
2022-11-07T11:44:05.725Z,11.69
2022-11-07T11:45:05.739Z,11.70
2022-11-07T11:46:05.723Z,11.74
2022-11-07T11:47:05.761Z,11.77
2022-11-07T11:48:05.666Z,11.74
2022-11-07T11:49:05.633Z,11.77
2022-11-07T11:50:05.694Z,11.79
2022-11-07T11:51:05.615Z,11.82
2022-11-07T11:52:05.801Z,11.84
2022-11-07T11:53:05.596Z,11.88
2022-11-07T11:54:05.591Z,11.84
2022-11-07T11:55:05.549Z,11.80
2022-11-07T11:56:05.561Z,11.77
2022-11-07T11:57:05.516Z,11.71
2022-11-07T11:58:05.565Z,11.71
2022-11-07T11:59:05.668Z,11.67
2022-11-07T12:00:05.511Z,11.66
2022-11-07T12:01:05.482Z,11.66
2022-11-07T12:02:05.533Z,11.69
2022-11-07T12:03:05.481Z,11.73
2022-11-07T12:04:08.066Z,11.71
2022-11-07T12:05:05.421Z,11.76
2022-11-07T12:06:05.435Z,11.69
2022-11-07T12:07:05.390Z,11.64
2022-11-07T12:08:05.491Z,11.70
2022-11-07T12:09:05.397Z,11.85
2022-11-07T12:10:05.417Z,11.95
2022-11-07T12:11:05.367Z,11.97
2022-11-07T12:12:05.337Z,11.99
2022-11-07T12:13:05.336Z,11.96
2022-11-07T12:14:05.342Z,12.00
2022-11-07T12:15:05.344Z,12.00
2022-11-07T12:16:05.273Z,12.07
2022-11-07T12:17:05.282Z,12.11
2022-11-07T12:18:05.293Z,12.11
2022-11-07T12:19:05.244Z,12.15
2022-11-07T12:20:05.281Z,12.14
2022-11-07T12:21:05.255Z,12.13
2022-11-07T12:22:05.213Z,12.18
2022-11-07T12:23:05.292Z,12.30
2022-11-07T12:24:05.201Z,12.47
2022-11-07T12:25:05.288Z,12.61
2022-11-07T12:26:05.179Z,12.68
2022-11-07T12:27:05.141Z,12.69
2022-11-07T12:28:05.136Z,12.77
2022-11-07T12:29:05.119Z,12.81
2022-11-07T12:30:05.098Z,12.81
2022-11-07T12:31:05.146Z,12.84
2022-11-07T12:32:05.075Z,12.87
2022-11-07T12:33:05.065Z,12.95
2022-11-07T12:34:05.158Z,13.02
2022-11-07T12:35:05.040Z,13.02
2022-11-07T12:36:05.063Z,13.06
2022-11-07T12:37:05.005Z,13.11
2022-11-07T12:38:05.019Z,13.21
2022-11-07T12:39:04.993Z,13.27
2022-11-07T12:40:04.984Z,13.32
2022-11-07T12:41:04.960Z,13.27
2022-11-07T12:42:04.974Z,13.20
2022-11-07T12:43:04.935Z,13.17
2022-11-07T12:44:04.926Z,12.87
2022-11-07T12:45:04.913Z,12.88
2022-11-07T12:46:04.889Z,12.87
2022-11-07T12:47:04.940Z,12.87
2022-11-07T12:48:10.231Z,12.81
2022-11-07T12:49:04.853Z,12.73
2022-11-07T12:50:04.874Z,12.73
2022-11-07T12:51:04.830Z,12.73
2022-11-07T12:52:04.801Z,12.72
2022-11-07T12:53:04.835Z,12.63
2022-11-07T12:54:04.777Z,12.63
2022-11-07T12:55:04.777Z,12.63
2022-11-07T12:56:04.753Z,12.72
2022-11-07T12:57:04.773Z,12.73
2022-11-07T12:58:04.752Z,12.77
2022-11-07T12:59:06.480Z,12.59
2022-11-07T13:00:04.716Z,12.59
2022-11-07T13:01:04.780Z,12.53
2022-11-07T13:02:04.808Z,12.53
2022-11-07T13:03:04.702Z,12.48
2022-11-07T13:04:04.677Z,12.47
2022-11-07T13:05:04.682Z,12.46
2022-11-07T13:06:04.644Z,12.36
2022-11-07T13:07:04.619Z,12.30
2022-11-07T13:08:04.601Z,12.21
2022-11-07T13:09:04.638Z,12.17
2022-11-07T13:10:04.571Z,12.18
2022-11-07T13:11:04.614Z,12.18
2022-11-07T13:12:04.550Z,12.21
2022-11-07T13:13:04.549Z,12.15